Time,TemperatureF,DewpointF,PressureIn,WindDirection,WindDirectionDegrees,WindSpeedMPH,WindSpeedGustMPH,Humidity,HourlyPrecipIn,Conditions,Clouds,dailyrainin,SoftwareType,DateUTC
2013-10-12 00:01:00,43.7,39.7,30.06,ESE,112,0.0,0.0,86,0.00,,,0.00,WUHU21636XXSP,2013-10-12 04:01:00,
2013-10-12 00:06:00,43.5,39.6,30.06,ESE,112,0.0,0.0,87,0.00,,,0.00,WUHU21636XXSP,2013-10-12 04:06:00,
2013-10-12 00:11:00,43.5,39.6,30.05,ESE,112,0.0,0.0,87,0.00,,,0.00,WUHU21636XXSP,2013-10-12 04:11:00,
2013-10-12 00:16:00,43.5,39.6,30.05,ESE,112,0.0,0.0,87,0.00,,,0.00,WUHU21636XXSP,2013-10-12 04:16:00,
2013-10-12 00:21:00,43.9,40.1,30.05,ESE,112,0.0,0.0,87,0.00,,,0.00,WUHU21636XXSP,2013-10-12 04:21:00,
2013-10-12 00:26:00,44.2,40.5,30.05,ESE,112,0.0,0.0,87,0.00,,,0.00,WUHU21636XXSP,2013-10-12 04:26:00,
2013-10-12 00:31:00,44.8,40.8,30.06,ESE,112,0.0,0.0,86,0.00,,,0.00,WUHU21636XXSP,2013-10-12 04:31:00,
2013-10-12 00:36:00,45.9,40.6,30.05,SE,135,0.0,3.8,82,0.00,,,0.00,WUHU21636XXSP,2013-10-12 04:36:00,
2013-10-12 00:41:00,48.6,39.9,30.05,SSE,157,3.3,3.8,72,0.00,,,0.00,WUHU21636XXSP,2013-10-12 04:41:00,
2013-10-12 00:46:00,50.5,40.3,30.05,SSE,157,3.1,3.3,68,0.00,,,0.00,WUHU21636XXSP,2013-10-12 04:46:00,
2013-10-12 00:51:00,52.2,39.4,30.05,SE,135,5.5,11.4,62,0.00,,,0.00,WUHU21636XXSP,2013-10-12 04:51:00,
2013-10-12 00:56:00,52.9,39.7,30.05,SSE,157,4.4,11.4,61,0.00,,,0.00,WUHU21636XXSP,2013-10-12 04:56:00,
2013-10-12 01:01:00,53.2,40.1,30.05,SSE,157,3.1,7.6,61,0.00,,,0.00,WUHU21636XXSP,2013-10-12 05:01:00,
2013-10-12 01:06:00,53.2,39.7,30.05,SE,135,3.5,9.1,60,0.00,,,0.00,WUHU21636XXSP,2013-10-12 05:06:00,
2013-10-12 01:11:00,53.6,39.6,30.05,SSE,157,3.8,9.1,60,0.00,,,0.00,WUHU21636XXSP,2013-10-12 05:11:00,
2013-10-12 01:16:00,53.4,39.9,30.05,SE,135,1.3,4.4,60,0.00,,,0.00,WUHU21636XXSP,2013-10-12 05:16:00,
2013-10-12 01:21:00,53.4,39.9,30.05,SSE,157,2.6,6.4,60,0.00,,,0.00,WUHU21636XXSP,2013-10-12 05:21:00,
2013-10-12 01:26:00,53.4,39.9,30.05,SSE,157,0.0,6.4,61,0.00,,,0.00,WUHU21636XXSP,2013-10-12 05:26:00,
2013-10-12 01:31:00,53.1,40.6,30.05,SSE,157,4.6,4.6,63,0.00,,,0.00,WUHU21636XXSP,2013-10-12 05:31:00,
2013-10-12 01:36:00,52.9,40.5,30.05,SE,135,0.0,4.6,63,0.00,,,0.00,WUHU21636XXSP,2013-10-12 05:36:00,
2013-10-12 01:41:00,52.3,40.8,30.05,SE,135,0.0,4.6,65,0.00,,,0.00,WUHU21636XXSP,2013-10-12 05:41:00,
2013-10-12 01:46:00,52.0,40.5,30.05,SE,135,0.0,0.0,65,0.00,,,0.00,WUHU21636XXSP,2013-10-12 05:46:00,
2013-10-12 01:51:00,51.6,40.5,30.05,SE,135,0.0,0.0,66,0.00,,,0.00,WUHU21636XXSP,2013-10-12 05:51:00,
2013-10-12 01:56:00,51.1,40.5,30.05,SE,135,0.0,0.0,67,0.00,,,0.00,WUHU21636XXSP,2013-10-12 05:56:00,
2013-10-12 02:01:00,50.5,40.3,30.05,SE,135,0.0,0.0,68,0.00,,,0.00,WUHU21636XXSP,2013-10-12 06:01:00,
2013-10-12 02:06:00,49.6,40.3,30.05,SE,135,0.0,0.0,70,0.00,,,0.00,WUHU21636XXSP,2013-10-12 06:06:00,
2013-10-12 02:11:00,49.1,39.9,30.05,SE,135,0.0,0.0,71,0.00,,,0.00,WUHU21636XXSP,2013-10-12 06:11:00,
2013-10-12 02:16:00,48.4,39.6,30.05,SE,135,0.0,0.0,72,0.00,,,0.00,WUHU21636XXSP,2013-10-12 06:16:00,
2013-10-12 02:21:00,48.0,39.6,30.05,SE,135,0.0,0.0,73,0.00,,,0.00,WUHU21636XXSP,2013-10-12 06:21:00,
2013-10-12 02:26:00,47.8,39.7,30.05,SE,135,0.0,0.0,75,0.00,,,0.00,WUHU21636XXSP,2013-10-12 06:26:00,
2013-10-12 02:31:00,47.5,40.8,30.05,SE,135,0.0,0.0,77,0.00,,,0.00,WUHU21636XXSP,2013-10-12 06:31:00,
2013-10-12 02:36:00,48.4,41.7,30.06,SE,135,0.0,0.0,78,0.00,,,0.00,WUHU21636XXSP,2013-10-12 06:36:00,
2013-10-12 02:41:00,49.1,42.4,30.06,SE,135,5.3,7.1,78,0.00,,,0.00,WUHU21636XXSP,2013-10-12 06:41:00,
2013-10-12 02:46:00,49.8,42.8,30.06,SE,135,0.0,7.1,77,0.00,,,0.00,WUHU21636XXSP,2013-10-12 06:46:00,
2013-10-12 02:51:00,50.9,43.2,30.06,SE,135,2.2,5.3,75,0.00,,,0.00,WUHU21636XXSP,2013-10-12 06:51:00,
2013-10-12 02:56:00,51.4,43.7,30.06,SE,135,3.3,3.5,75,0.00,,,0.00,WUHU21636XXSP,2013-10-12 06:56:00,
2013-10-12 03:01:00,52.2,44.1,30.06,SSE,157,3.8,7.3,74,0.00,,,0.00,WUHU21636XXSP,2013-10-12 07:01:00,
2013-10-12 03:06:00,52.5,44.4,30.06,SE,135,2.4,7.3,73,0.00,,,0.00,WUHU21636XXSP,2013-10-12 07:06:00,
2013-10-12 03:11:00,52.9,44.4,30.06,SE,135,2.2,3.8,73,0.00,,,0.00,WUHU21636XXSP,2013-10-12 07:11:00,
2013-10-12 03:16:00,52.9,44.4,30.05,SE,135,0.0,3.1,73,0.00,,,0.00,WUHU21636XXSP,2013-10-12 07:16:00,
2013-10-12 03:21:00,52.9,44.4,30.05,SSE,157,4.0,4.0,73,0.00,,,0.00,WUHU21636XXSP,2013-10-12 07:21:00,
2013-10-12 03:26:00,52.7,44.2,30.05,SSE,157,0.0,4.0,73,0.00,,,0.00,WUHU21636XXSP,2013-10-12 07:26:00,
2013-10-12 03:31:00,52.5,44.1,30.05,SSE,157,0.0,0.0,73,0.00,,,0.00,WUHU21636XXSP,2013-10-12 07:31:00,
2013-10-12 03:36:00,52.3,43.9,30.05,SSE,157,0.0,0.0,73,0.00,,,0.00,WUHU21636XXSP,2013-10-12 07:36:00,
2013-10-12 03:41:00,52.2,43.9,30.05,SSE,157,0.0,0.0,73,0.00,,,0.00,WUHU21636XXSP,2013-10-12 07:41:00,
2013-10-12 03:46:00,52.0,43.9,30.05,SSE,157,0.0,0.0,74,0.00,,,0.00,WUHU21636XXSP,2013-10-12 07:46:00,
2013-10-12 03:51:00,51.8,43.7,30.05,SSE,157,0.0,0.0,74,0.00,,,0.00,WUHU21636XXSP,2013-10-12 07:51:00,
2013-10-12 03:56:00,51.6,43.5,30.05,SSE,157,0.0,0.0,74,0.00,,,0.00,WUHU21636XXSP,2013-10-12 07:56:00,
2013-10-12 04:01:00,51.6,43.5,30.05,SSE,157,0.0,1.5,74,0.00,,,0.00,WUHU21636XXSP,2013-10-12 08:01:00,
2013-10-12 04:06:00,51.6,43.5,30.05,SSE,157,1.3,1.5,74,0.00,,,0.00,WUHU21636XXSP,2013-10-12 08:06:00,
2013-10-12 04:11:00,52.2,43.7,30.05,SSE,157,0.0,1.5,73,0.00,,,0.00,WUHU21636XXSP,2013-10-12 08:11:00,
2013-10-12 04:16:00,52.3,43.9,30.05,SE,135,0.0,0.8,73,0.00,,,0.00,WUHU21636XXSP,2013-10-12 08:16:00,
2013-10-12 04:21:00,52.2,43.7,30.05,SE,135,0.0,1.1,73,0.00,,,0.00,WUHU21636XXSP,2013-10-12 08:21:00,
2013-10-12 04:26:00,52.0,43.5,30.05,SE,135,0.0,1.1,74,0.00,,,0.00,WUHU21636XXSP,2013-10-12 08:26:00,
2013-10-12 04:31:00,51.8,43.7,30.05,SE,135,0.0,0.0,74,0.00,,,0.00,WUHU21636XXSP,2013-10-12 08:31:00,
2013-10-12 04:36:00,51.4,43.3,30.05,SE,135,0.0,0.0,74,0.00,,,0.00,WUHU21636XXSP,2013-10-12 08:36:00,
2013-10-12 04:41:00,50.7,42.6,30.05,SE,135,0.0,0.0,74,0.00,,,0.00,WUHU21636XXSP,2013-10-12 08:41:00,
2013-10-12 04:46:00,50.4,42.3,30.05,SE,135,0.0,0.0,74,0.00,,,0.00,WUHU21636XXSP,2013-10-12 08:46:00,
2013-10-12 04:51:00,49.8,42.1,30.05,SE,135,0.0,0.0,75,0.00,,,0.00,WUHU21636XXSP,2013-10-12 08:51:00,
2013-10-12 04:56:00,49.3,42.1,30.05,SE,135,0.0,0.0,76,0.00,,,0.00,WUHU21636XXSP,2013-10-12 08:56:00,
2013-10-12 05:01:00,48.6,41.5,30.05,SE,135,0.0,0.0,77,0.00,,,0.00,WUHU21636XXSP,2013-10-12 09:01:00,
2013-10-12 05:06:00,48.4,41.4,30.04,SE,135,0.0,0.0,79,0.00,,,0.00,WUHU21636XXSP,2013-10-12 09:06:00,
2013-10-12 05:11:00,48.0,41.7,30.04,SE,135,0.0,0.0,80,0.00,,,0.00,WUHU21636XXSP,2013-10-12 09:11:00,
2013-10-12 05:16:00,47.5,41.5,30.04,SE,135,0.0,0.0,80,0.00,,,0.00,WUHU21636XXSP,2013-10-12 09:16:00,
2013-10-12 05:21:00,47.1,41.2,30.04,SE,135,0.0,0.0,80,0.00,,,0.00,WUHU21636XXSP,2013-10-12 09:21:00,
2013-10-12 05:26:00,46.9,41.4,30.04,SE,135,0.0,0.0,81,0.00,,,0.00,WUHU21636XXSP,2013-10-12 09:26:00,
2013-10-12 05:31:00,46.4,40.8,30.04,SE,135,0.0,0.0,81,0.00,,,0.00,WUHU21636XXSP,2013-10-12 09:31:00,
2013-10-12 05:36:00,46.2,41.0,30.04,SE,135,0.0,0.0,82,0.00,,,0.00,WUHU21636XXSP,2013-10-12 09:36:00,
2013-10-12 05:41:00,46.0,40.8,30.04,SE,135,0.0,0.0,83,0.00,,,0.00,WUHU21636XXSP,2013-10-12 09:41:00,
2013-10-12 05:46:00,46.0,41.4,30.04,SE,135,0.0,0.0,84,0.00,,,0.00,WUHU21636XXSP,2013-10-12 09:46:00,
2013-10-12 05:51:00,46.0,41.4,30.04,SE,135,0.0,0.0,85,0.00,,,0.00,WUHU21636XXSP,2013-10-12 09:51:00,
2013-10-12 05:56:00,45.7,41.0,30.04,SE,135,0.0,0.0,84,0.00,,,0.00,WUHU21636XXSP,2013-10-12 09:56:00,
2013-10-12 06:01:00,45.5,41.2,30.04,SE,135,0.0,0.0,85,0.00,,,0.00,WUHU21636XXSP,2013-10-12 10:01:00,
2013-10-12 06:06:00,45.5,41.2,30.04,SE,135,0.0,0.0,85,0.00,,,0.00,WUHU21636XXSP,2013-10-12 10:06:00,
2013-10-12 06:11:00,45.5,41.2,30.04,SE,135,0.0,0.0,86,0.00,,,0.00,WUHU21636XXSP,2013-10-12 10:11:00,
2013-10-12 06:16:00,46.9,42.8,30.04,SE,135,0.0,0.0,88,0.00,,,0.00,WUHU21636XXSP,2013-10-12 10:16:00,
2013-10-12 06:21:00,47.3,43.9,30.04,SE,135,0.0,0.0,88,0.00,,,0.00,WUHU21636XXSP,2013-10-12 10:21:00,
2013-10-12 06:26:00,47.7,44.2,30.04,SE,135,0.0,0.0,88,0.00,,,0.00,WUHU21636XXSP,2013-10-12 10:26:00,
2013-10-12 06:31:00,48.4,45.3,30.04,SE,135,0.0,0.0,88,0.00,,,0.00,WUHU21636XXSP,2013-10-12 10:31:00,
2013-10-12 06:36:00,49.6,46.0,30.04,SE,135,1.5,1.5,88,0.00,,,0.00,WUHU21636XXSP,2013-10-12 10:36:00,
2013-10-12 06:41:00,50.4,46.4,30.04,SE,135,0.0,1.5,87,0.00,,,0.00,WUHU21636XXSP,2013-10-12 10:41:00,
2013-10-12 06:46:00,51.4,47.3,30.04,SSE,157,1.1,7.6,86,0.00,,,0.00,WUHU21636XXSP,2013-10-12 10:46:00,
2013-10-12 06:51:00,52.5,47.5,30.04,SSE,157,0.0,7.6,83,0.00,,,0.00,WUHU21636XXSP,2013-10-12 10:51:00,
2013-10-12 06:56:00,53.2,47.5,30.04,SSE,157,0.8,1.5,81,0.00,,,0.00,WUHU21636XXSP,2013-10-12 10:56:00,
2013-10-12 07:01:00,53.4,47.5,30.04,SE,135,0.4,1.5,80,0.00,,,0.00,WUHU21636XXSP,2013-10-12 11:01:00,
2013-10-12 07:06:00,53.8,46.9,30.04,SSE,157,0.0,1.1,78,0.00,,,0.00,WUHU21636XXSP,2013-10-12 11:06:00,
2013-10-12 07:11:00,54.0,46.8,30.04,SSE,157,2.4,2.4,77,0.00,,,0.00,WUHU21636XXSP,2013-10-12 11:11:00,
2013-10-12 07:16:00,53.8,45.9,30.04,SSE,157,0.0,2.4,75,0.00,,,0.00,WUHU21636XXSP,2013-10-12 11:16:00,
2013-10-12 07:21:00,53.8,45.9,30.04,SSE,157,0.0,2.4,75,0.00,,,0.00,WUHU21636XXSP,2013-10-12 11:21:00,
2013-10-12 07:26:00,53.8,45.1,30.03,SSE,157,0.0,1.7,73,0.00,,,0.00,WUHU21636XXSP,2013-10-12 11:26:00,
2013-10-12 07:31:00,54.1,45.5,30.03,SSE,157,0.0,2.2,73,0.00,,,0.00,WUHU21636XXSP,2013-10-12 11:31:00,
2013-10-12 07:36:00,54.3,45.3,30.03,SSE,157,2.2,2.2,72,0.00,,,0.00,WUHU21636XXSP,2013-10-12 11:36:00,
2013-10-12 07:41:00,54.5,45.5,30.03,SE,135,3.5,3.5,72,0.00,,,0.00,WUHU21636XXSP,2013-10-12 11:41:00,
2013-10-12 07:46:00,54.7,45.3,30.03,SSE,157,0.0,7.8,71,0.00,,,0.00,WUHU21636XXSP,2013-10-12 11:46:00,
2013-10-12 07:51:00,55.0,45.5,30.03,SSE,157,4.0,7.8,70,0.00,,,0.00,WUHU21636XXSP,2013-10-12 11:51:00,
2013-10-12 07:56:00,55.0,45.5,30.03,SSW,202,0.0,4.0,70,0.00,,,0.00,WUHU21636XXSP,2013-10-12 11:56:00,
2013-10-12 08:01:00,54.7,45.3,30.04,SE,135,0.0,4.0,71,0.00,,,0.00,WUHU21636XXSP,2013-10-12 12:01:00,
2013-10-12 08:06:00,54.5,45.1,30.04,South,180,3.1,3.1,71,0.00,,,0.00,WUHU21636XXSP,2013-10-12 12:06:00,
2013-10-12 08:11:00,54.7,45.7,30.04,SE,135,0.0,7.1,72,0.00,,,0.00,WUHU21636XXSP,2013-10-12 12:11:00,
2013-10-12 08:16:00,54.9,45.9,30.04,SSE,157,3.3,7.1,72,0.00,,,0.00,WUHU21636XXSP,2013-10-12 12:16:00,
2013-10-12 08:21:00,55.0,45.7,30.04,SE,135,0.0,3.3,71,0.00,,,0.00,WUHU21636XXSP,2013-10-12 12:21:00,
2013-10-12 08:26:00,55.0,45.7,30.04,SE,135,0.0,3.3,71,0.00,,,0.00,WUHU21636XXSP,2013-10-12 12:26:00,
2013-10-12 08:31:00,54.7,45.3,30.04,SE,135,0.0,0.0,71,0.00,,,0.00,WUHU21636XXSP,2013-10-12 12:31:00,
2013-10-12 08:36:00,54.7,45.3,30.04,SE,135,2.4,2.4,72,0.00,,,0.00,WUHU21636XXSP,2013-10-12 12:36:00,
2013-10-12 08:41:00,54.9,45.9,30.04,SE,135,1.7,2.4,72,0.00,,,0.00,WUHU21636XXSP,2013-10-12 12:41:00,
2013-10-12 08:46:00,55.2,45.9,30.04,SE,135,2.0,2.4,71,0.00,,,0.00,WUHU21636XXSP,2013-10-12 12:46:00,
2013-10-12 08:51:00,56.3,46.2,30.04,SSE,157,1.1,2.6,69,0.00,,,0.00,WUHU21636XXSP,2013-10-12 12:51:00,
2013-10-12 08:56:00,57.6,46.6,30.04,SE,135,2.2,3.3,67,0.00,,,0.00,WUHU21636XXSP,2013-10-12 12:56:00,
2013-10-12 09:01:00,58.3,46.4,30.04,SE,135,3.8,7.6,65,0.00,,,0.00,WUHU21636XXSP,2013-10-12 13:01:00,
2013-10-12 09:06:00,59.0,47.1,30.04,SE,135,2.9,7.6,65,0.00,,,0.00,WUHU21636XXSP,2013-10-12 13:06:00,
2013-10-12 09:11:00,59.9,47.7,30.04,SE,135,2.4,3.8,64,0.00,,,0.00,WUHU21636XXSP,2013-10-12 13:11:00,
2013-10-12 09:16:00,60.4,47.7,30.04,SSE,157,1.1,2.9,63,0.00,,,0.00,WUHU21636XXSP,2013-10-12 13:16:00,
2013-10-12 09:21:00,61.2,48.0,30.04,SE,135,2.2,2.4,62,0.00,,,0.00,WUHU21636XXSP,2013-10-12 13:21:00,
2013-10-12 09:26:00,61.5,48.4,30.04,SE,135,2.2,2.9,62,0.00,,,0.00,WUHU21636XXSP,2013-10-12 13:26:00,
2013-10-12 09:31:00,62.1,48.0,30.04,SSE,157,2.6,6.7,60,0.00,,,0.00,WUHU21636XXSP,2013-10-12 13:31:00,
2013-10-12 09:36:00,62.8,48.6,30.04,SE,135,0.8,6.7,60,0.00,,,0.00,WUHU21636XXSP,2013-10-12 13:36:00,
2013-10-12 09:41:00,63.3,48.6,30.04,SE,135,3.1,3.1,59,0.00,,,0.00,WUHU21636XXSP,2013-10-12 13:41:00,
2013-10-12 09:46:00,64.2,49.5,30.04,SE,135,0.0,3.1,59,0.00,,,0.00,WUHU21636XXSP,2013-10-12 13:46:00,
2013-10-12 09:51:00,64.9,49.6,30.04,SE,135,2.0,6.7,58,0.00,,,0.00,WUHU21636XXSP,2013-10-12 13:51:00,
2013-10-12 09:56:00,65.3,49.5,30.04,South,180,1.1,6.7,57,0.00,,,0.00,WUHU21636XXSP,2013-10-12 13:56:00,
2013-10-12 10:01:00,65.5,49.6,30.03,South,180,0.6,5.8,56,0.00,,,0.00,WUHU21636XXSP,2013-10-12 14:01:00,
2013-10-12 10:06:00,65.5,49.6,30.04,SE,135,2.9,2.9,57,0.00,,,0.00,WUHU21636XXSP,2013-10-12 14:06:00,
2013-10-12 10:11:00,65.8,49.1,30.03,SSE,157,4.0,4.0,55,0.00,,,0.00,WUHU21636XXSP,2013-10-12 14:11:00,
2013-10-12 10:16:00,65.8,49.6,30.03,SSW,202,1.1,4.0,56,0.00,,,0.00,WUHU21636XXSP,2013-10-12 14:16:00,
2013-10-12 10:21:00,66.2,50.0,30.03,SSE,157,2.6,4.4,56,0.00,,,0.00,WUHU21636XXSP,2013-10-12 14:21:00,
2013-10-12 10:26:00,66.6,50.7,30.03,SE,135,3.8,7.3,57,0.00,,,0.00,WUHU21636XXSP,2013-10-12 14:26:00,
2013-10-12 10:31:00,67.1,50.7,30.03,SSW,202,3.3,7.3,56,0.00,,,0.00,WUHU21636XXSP,2013-10-12 14:31:00,
2013-10-12 10:36:00,67.5,51.1,30.03,SSE,157,3.8,11.6,56,0.00,,,0.00,WUHU21636XXSP,2013-10-12 14:36:00,
2013-10-12 10:41:00,67.6,51.3,30.03,South,180,0.0,11.6,57,0.00,,,0.00,WUHU21636XXSP,2013-10-12 14:41:00,
2013-10-12 10:46:00,68.2,51.3,30.03,South,180,6.4,9.3,55,0.00,,,0.00,WUHU21636XXSP,2013-10-12 14:46:00,
2013-10-12 10:51:00,68.5,52.2,30.03,SSE,157,0.0,9.3,56,0.00,,,0.00,WUHU21636XXSP,2013-10-12 14:51:00,
2013-10-12 10:56:00,69.1,51.6,30.03,South,180,5.1,9.3,54,0.00,,,0.00,WUHU21636XXSP,2013-10-12 14:56:00,
2013-10-12 11:01:00,69.4,51.4,30.03,SE,135,4.2,5.1,53,0.00,,,0.00,WUHU21636XXSP,2013-10-12 15:01:00,
2013-10-12 11:06:00,69.6,52.2,30.03,SE,135,2.0,12.9,54,0.00,,,0.00,WUHU21636XXSP,2013-10-12 15:06:00,
2013-10-12 11:11:00,69.6,51.6,30.03,SSE,157,6.2,12.9,53,0.00,,,0.00,WUHU21636XXSP,2013-10-12 15:11:00,
2013-10-12 11:16:00,70.0,52.5,30.03,SE,135,5.3,10.5,54,0.00,,,0.00,WUHU21636XXSP,2013-10-12 15:16:00,
2013-10-12 11:21:00,70.5,52.9,30.03,South,180,0.6,9.3,54,0.00,,,0.00,WUHU21636XXSP,2013-10-12 15:21:00,
2013-10-12 11:52:00,72.7,53.6,30.02,South,180,4.2,4.2,51,0.00,,,0.00,WUHU21636XXSP,2013-10-12 15:52:00,
2013-10-12 12:02:00,74.1,54.7,30.01,SE,135,3.8,6.4,51,0.00,,,0.00,WUHU21636XXSP,2013-10-12 16:02:00,
2013-10-12 12:07:00,74.5,53.4,30.01,SSE,157,1.7,4.2,48,0.00,,,0.00,WUHU21636XXSP,2013-10-12 16:07:00,
2013-10-12 12:12:00,74.1,54.3,30.01,SE,135,8.0,12.5,50,0.00,,,0.00,WUHU21636XXSP,2013-10-12 16:12:00,
2013-10-12 12:17:00,74.1,53.6,30.00,South,180,4.6,17.6,49,0.00,,,0.00,WUHU21636XXSP,2013-10-12 16:17:00,
2013-10-12 12:22:00,74.5,54.7,30.00,SSE,157,2.2,17.6,50,0.00,,,0.00,WUHU21636XXSP,2013-10-12 16:22:00,
2013-10-12 12:27:00,74.8,53.8,30.00,South,180,5.8,14.9,48,0.00,,,0.00,WUHU21636XXSP,2013-10-12 16:27:00,
2013-10-12 12:32:00,74.8,53.1,30.00,SW,225,5.5,29.0,48,0.00,,,0.00,WUHU21636XXSP,2013-10-12 16:32:00,
2013-10-12 12:37:00,75.2,53.4,30.00,SE,135,6.2,29.0,47,0.00,,,0.00,WUHU21636XXSP,2013-10-12 16:37:00,
2013-10-12 12:42:00,75.7,54.0,30.00,SE,135,6.7,14.5,47,0.00,,,0.00,WUHU21636XXSP,2013-10-12 16:42:00,
2013-10-12 12:47:00,76.3,54.5,30.00,South,180,1.7,14.0,47,0.00,,,0.00,WUHU21636XXSP,2013-10-12 16:47:00,
2013-10-12 12:52:00,76.6,54.1,30.00,SSW,202,3.8,11.8,46,0.00,,,0.00,WUHU21636XXSP,2013-10-12 16:52:00,
2013-10-12 12:57:00,77.4,54.1,30.00,SSW,202,5.8,11.8,45,0.00,,,0.00,WUHU21636XXSP,2013-10-12 16:57:00,
2013-10-12 13:02:00,77.2,53.4,30.00,SSE,157,11.4,16.5,44,0.00,,,0.00,WUHU21636XXSP,2013-10-12 17:02:00,
2013-10-12 13:07:00,77.2,54.0,29.99,SSE,157,6.4,16.5,46,0.00,,,0.00,WUHU21636XXSP,2013-10-12 17:07:00,
2013-10-12 13:12:00,77.5,54.3,29.99,SE,135,3.3,16.5,45,0.00,,,0.00,WUHU21636XXSP,2013-10-12 17:12:00,
2013-10-12 13:17:00,77.5,52.5,29.99,SE,135,8.2,16.5,42,0.00,,,0.00,WUHU21636XXSP,2013-10-12 17:17:00,
2013-10-12 13:22:00,77.4,53.6,29.99,SSE,157,3.3,19.0,44,0.00,,,0.00,WUHU21636XXSP,2013-10-12 17:22:00,
2013-10-12 13:27:00,77.7,54.5,29.98,SSE,157,3.8,19.0,45,0.00,,,0.00,WUHU21636XXSP,2013-10-12 17:27:00,
2013-10-12 13:32:00,78.6,54.1,29.98,SW,225,3.5,12.5,43,0.00,,,0.00,WUHU21636XXSP,2013-10-12 17:32:00,
2013-10-12 13:37:00,78.6,54.1,29.98,SE,135,2.2,12.5,43,0.00,,,0.00,WUHU21636XXSP,2013-10-12 17:37:00,
2013-10-12 13:42:00,78.6,53.4,29.98,SSW,202,6.7,15.6,42,0.00,,,0.00,WUHU21636XXSP,2013-10-12 17:42:00,
2013-10-12 13:47:00,78.6,53.4,29.97,South,180,3.3,15.6,42,0.00,,,0.00,WUHU21636XXSP,2013-10-12 17:47:00,
2013-10-12 13:52:00,79.3,54.1,29.97,South,180,5.8,13.1,42,0.00,,,0.00,WUHU21636XXSP,2013-10-12 17:52:00,
2013-10-12 13:57:00,79.3,53.6,29.97,SSW,202,4.2,13.1,41,0.00,,,0.00,WUHU21636XXSP,2013-10-12 17:57:00,
2013-10-12 14:02:00,79.3,52.9,29.97,SSW,202,8.5,15.6,40,0.00,,,0.00,WUHU21636XXSP,2013-10-12 18:02:00,
2013-10-12 14:07:00,79.0,52.5,29.97,South,180,8.2,16.5,40,0.00,,,0.00,WUHU21636XXSP,2013-10-12 18:07:00,
2013-10-12 14:12:00,78.8,52.5,29.96,SE,135,8.9,17.8,40,0.00,,,0.00,WUHU21636XXSP,2013-10-12 18:12:00,
2013-10-12 14:17:00,78.8,51.6,29.97,South,180,9.8,18.1,39,0.00,,,0.00,WUHU21636XXSP,2013-10-12 18:17:00,
2013-10-12 14:22:00,78.6,52.3,29.96,South,180,6.9,18.1,40,0.00,,,0.00,WUHU21636XXSP,2013-10-12 18:22:00,
2013-10-12 14:27:00,79.0,53.2,29.96,SW,225,6.7,17.8,41,0.00,,,0.00,WUHU21636XXSP,2013-10-12 18:27:00,
2013-10-12 14:32:00,79.5,52.3,29.96,SSE,157,7.6,16.1,39,0.00,,,0.00,WUHU21636XXSP,2013-10-12 18:32:00,
2013-10-12 14:37:00,79.9,53.2,29.96,SSE,157,4.9,12.9,39,0.00,,,0.00,WUHU21636XXSP,2013-10-12 18:37:00,
2013-10-12 14:42:00,79.7,53.2,29.96,SSE,157,6.7,14.0,39,0.00,,,0.00,WUHU21636XXSP,2013-10-12 18:42:00,
2013-10-12 14:47:00,80.2,52.2,29.96,SSW,202,9.8,15.6,38,0.00,,,0.00,WUHU21636XXSP,2013-10-12 18:47:00,
2013-10-12 14:52:00,79.5,52.3,29.95,SSW,202,6.7,17.4,39,0.00,,,0.00,WUHU21636XXSP,2013-10-12 18:52:00,
2013-10-12 14:57:00,79.3,53.6,29.95,SSE,157,6.2,18.7,41,0.00,,,0.00,WUHU21636XXSP,2013-10-12 18:57:00,
2013-10-12 15:02:00,79.5,53.8,29.95,SSE,157,2.4,18.7,40,0.00,,,0.00,WUHU21636XXSP,2013-10-12 19:02:00,
2013-10-12 15:07:00,79.7,52.5,29.95,SSW,202,7.8,15.4,39,0.00,,,0.00,WUHU21636XXSP,2013-10-12 19:07:00,
2013-10-12 15:12:00,79.9,53.4,29.95,South,180,4.2,15.4,40,0.00,,,0.00,WUHU21636XXSP,2013-10-12 19:12:00,
2013-10-12 15:17:00,79.9,52.7,29.95,SSE,157,5.5,14.3,39,0.00,,,0.00,WUHU21636XXSP,2013-10-12 19:17:00,
2013-10-12 15:22:00,79.7,51.6,29.95,SSE,157,8.5,16.7,39,0.00,,,0.00,WUHU21636XXSP,2013-10-12 19:22:00,
2013-10-12 15:27:00,79.2,52.7,29.94,SSW,202,5.8,16.7,40,0.00,,,0.00,WUHU21636XXSP,2013-10-12 19:27:00,
2013-10-12 15:32:00,78.8,52.5,29.95,SSE,157,5.5,34.0,40,0.00,,,0.00,WUHU21636XXSP,2013-10-12 19:32:00,
2013-10-12 15:37:00,79.2,52.7,29.94,West,270,0.0,34.0,40,0.00,,,0.00,WUHU21636XXSP,2013-10-12 19:37:00,
2013-10-12 15:42:00,79.9,51.8,29.95,SSW,202,5.5,12.9,38,0.00,,,0.00,WUHU21636XXSP,2013-10-12 19:42:00,
2013-10-12 15:47:00,80.2,52.9,29.95,SE,135,3.1,15.4,39,0.00,,,0.00,WUHU21636XXSP,2013-10-12 19:47:00,
2013-10-12 15:52:00,80.2,51.4,29.95,SSE,157,6.7,15.8,38,0.00,,,0.00,WUHU21636XXSP,2013-10-12 19:52:00,
2013-10-12 15:57:00,80.2,52.9,29.94,West,270,0.0,15.8,38,0.00,,,0.00,WUHU21636XXSP,2013-10-12 19:57:00,
2013-10-12 16:02:00,80.2,51.4,29.94,SW,225,4.4,17.0,37,0.00,,,0.00,WUHU21636XXSP,2013-10-12 20:02:00,
2013-10-12 16:07:00,79.9,50.9,29.94,SSE,157,6.0,17.0,38,0.00,,,0.00,WUHU21636XXSP,2013-10-12 20:07:00,
2013-10-12 16:12:00,79.5,50.7,29.94,SSE,157,8.5,15.8,37,0.00,,,0.00,WUHU21636XXSP,2013-10-12 20:12:00,
2013-10-12 16:17:00,78.4,51.3,29.94,SE,135,6.7,15.8,39,0.00,,,0.00,WUHU21636XXSP,2013-10-12 20:17:00,
2013-10-12 16:22:00,77.5,50.5,29.94,SSE,157,5.5,16.3,39,0.00,,,0.00,WUHU21636XXSP,2013-10-12 20:22:00,
2013-10-12 16:27:00,77.0,50.9,29.93,SSE,157,5.3,16.3,40,0.00,,,0.00,WUHU21636XXSP,2013-10-12 20:27:00,
2013-10-12 16:32:00,76.8,50.7,29.94,South,180,3.8,17.6,40,0.00,,,0.00,WUHU21636XXSP,2013-10-12 20:32:00,
2013-10-12 16:37:00,77.4,51.1,29.94,SSE,157,4.6,17.8,40,0.00,,,0.00,WUHU21636XXSP,2013-10-12 20:37:00,
2013-10-12 16:42:00,77.7,50.7,29.93,SW,225,6.0,17.8,39,0.00,,,0.00,WUHU21636XXSP,2013-10-12 20:42:00,
2013-10-12 16:47:00,77.9,51.1,29.94,SSE,157,8.2,16.5,39,0.00,,,0.00,WUHU21636XXSP,2013-10-12 20:47:00,
2013-10-12 16:52:00,77.4,51.1,29.94,South,180,8.9,16.5,40,0.00,,,0.00,WUHU21636XXSP,2013-10-12 20:52:00,
2013-10-12 16:57:00,76.6,51.1,29.94,South,180,5.5,16.5,41,0.00,,,0.00,WUHU21636XXSP,2013-10-12 20:57:00,
2013-10-12 17:02:00,76.3,51.4,29.94,SSE,157,3.5,20.8,42,0.00,,,0.00,WUHU21636XXSP,2013-10-12 21:02:00,
2013-10-12 17:07:00,75.9,51.1,29.94,SSW,202,3.3,20.8,42,0.00,,,0.00,WUHU21636XXSP,2013-10-12 21:07:00,
2013-10-12 17:12:00,75.9,51.6,29.94,SSE,157,3.5,8.0,43,0.00,,,0.00,WUHU21636XXSP,2013-10-12 21:12:00,
2013-10-12 17:17:00,75.7,51.4,29.94,WSW,247,4.0,8.0,43,0.00,,,0.00,WUHU21636XXSP,2013-10-12 21:17:00,
2013-10-12 17:22:00,76.1,51.8,29.94,SE,135,4.0,9.3,43,0.00,,,0.00,WUHU21636XXSP,2013-10-12 21:22:00,
2013-10-12 17:27:00,76.3,52.0,29.94,SSE,157,3.3,10.9,43,0.00,,,0.00,WUHU21636XXSP,2013-10-12 21:27:00,
2013-10-12 17:32:00,76.3,52.0,29.94,SSE,157,3.1,10.9,43,0.00,,,0.00,WUHU21636XXSP,2013-10-12 21:32:00,
2013-10-12 17:37:00,76.1,51.8,29.94,SSW,202,2.6,8.7,43,0.00,,,0.00,WUHU21636XXSP,2013-10-12 21:37:00,
2013-10-12 17:42:00,75.9,52.3,29.95,SSW,202,4.9,7.6,44,0.00,,,0.00,WUHU21636XXSP,2013-10-12 21:42:00,
2013-10-12 17:47:00,75.4,51.3,29.95,SE,135,4.6,12.0,43,0.00,,,0.00,WUHU21636XXSP,2013-10-12 21:47:00,
2013-10-12 17:52:00,75.0,51.4,29.95,SSW,202,7.8,16.3,44,0.00,,,0.00,WUHU21636XXSP,2013-10-12 21:52:00,
2013-10-12 17:57:00,75.0,51.4,29.96,SSW,202,2.9,16.3,45,0.00,,,0.00,WUHU21636XXSP,2013-10-12 21:57:00,
2013-10-12 18:02:00,74.8,51.8,29.96,SSW,202,5.1,13.4,45,0.00,,,0.00,WUHU21636XXSP,2013-10-12 22:02:00,
2013-10-12 18:07:00,74.3,51.4,29.96,SSW,202,4.2,13.4,45,0.00,,,0.00,WUHU21636XXSP,2013-10-12 22:07:00,
2013-10-12 18:12:00,74.1,51.8,29.97,South,180,1.3,4.2,46,0.00,,,0.00,WUHU21636XXSP,2013-10-12 22:12:00,
2013-10-12 18:17:00,73.9,51.6,29.97,SSE,157,3.3,7.3,46,0.00,,,0.00,WUHU21636XXSP,2013-10-12 22:17:00,
2013-10-12 18:22:00,73.8,52.2,29.97,SSW,202,2.4,7.3,47,0.00,,,0.00,WUHU21636XXSP,2013-10-12 22:22:00,
2013-10-12 18:27:00,73.4,51.8,29.97,SSW,202,0.0,3.3,47,0.00,,,0.00,WUHU21636XXSP,2013-10-12 22:27:00,
2013-10-12 18:32:00,73.0,52.0,29.97,SSW,202,0.4,3.3,48,0.00,,,0.00,WUHU21636XXSP,2013-10-12 22:32:00,
2013-10-12 18:37:00,72.7,52.3,29.97,SW,225,0.0,0.4,49,0.00,,,0.00,WUHU21636XXSP,2013-10-12 22:37:00,
2013-10-12 18:42:00,72.3,52.5,29.97,WSW,247,0.0,3.1,50,0.00,,,0.00,WUHU21636XXSP,2013-10-12 22:42:00,
2013-10-12 18:47:00,72.1,52.3,29.98,WSW,247,0.0,3.1,51,0.00,,,0.00,WUHU21636XXSP,2013-10-12 22:47:00,
2013-10-12 18:52:00,71.8,52.5,29.98,SW,225,4.9,4.9,51,0.00,,,0.00,WUHU21636XXSP,2013-10-12 22:52:00,
2013-10-12 18:57:00,71.6,52.9,29.98,SSW,202,0.0,4.9,52,0.00,,,0.00,WUHU21636XXSP,2013-10-12 22:57:00,
2013-10-12 19:02:00,71.2,52.5,29.98,SW,225,0.0,4.9,52,0.00,,,0.00,WUHU21636XXSP,2013-10-12 23:02:00,
2013-10-12 19:07:00,71.2,52.5,29.98,SSW,202,2.6,2.6,53,0.00,,,0.00,WUHU21636XXSP,2013-10-12 23:07:00,
2013-10-12 19:12:00,70.9,52.7,29.98,South,180,0.0,3.1,53,0.00,,,0.00,WUHU21636XXSP,2013-10-12 23:12:00,
2013-10-12 19:17:00,70.7,53.1,29.98,South,180,0.0,3.1,54,0.00,,,0.00,WUHU21636XXSP,2013-10-12 23:17:00,
2013-10-12 19:22:00,70.5,52.5,29.98,South,180,0.0,0.0,54,0.00,,,0.00,WUHU21636XXSP,2013-10-12 23:22:00,
2013-10-12 19:27:00,70.3,52.7,29.98,South,180,0.0,2.2,54,0.00,,,0.00,WUHU21636XXSP,2013-10-12 23:27:00,
2013-10-12 19:32:00,70.0,52.9,29.98,South,180,0.0,2.2,55,0.00,,,0.00,WUHU21636XXSP,2013-10-12 23:32:00,
2013-10-12 19:38:00,70.0,52.9,29.98,ESE,112,0.0,0.0,56,0.00,,,0.00,WUHU21636XXSP,2013-10-12 23:38:00,
2013-10-12 19:42:00,69.4,52.9,29.97,SE,135,1.7,1.7,56,0.00,,,0.00,WUHU21636XXSP,2013-10-12 23:42:00,
2013-10-12 19:48:00,69.4,52.9,29.98,SE,135,0.0,1.7,56,0.00,,,0.00,WUHU21636XXSP,2013-10-12 23:48:00,
2013-10-12 19:53:00,69.4,52.9,29.98,SE,135,0.0,1.7,56,0.00,,,0.00,WUHU21636XXSP,2013-10-12 23:53:00,
2013-10-12 19:58:00,69.3,52.7,29.98,SE,135,0.0,0.0,56,0.00,,,0.00,WUHU21636XXSP,2013-10-12 23:58:00,
2013-10-12 20:02:00,69.1,53.1,29.98,SE,135,0.0,0.0,56,0.00,,,0.00,WUHU21636XXSP,2013-10-13 00:02:00,
2013-10-12 20:08:00,69.1,53.1,29.98,SE,135,0.0,0.0,57,0.00,,,0.00,WUHU21636XXSP,2013-10-13 00:08:00,
2013-10-12 20:12:00,68.7,52.7,29.98,SE,135,0.0,0.0,57,0.00,,,0.00,WUHU21636XXSP,2013-10-13 00:12:00,
2013-10-12 20:17:00,68.5,53.1,29.99,SE,135,0.0,0.0,59,0.00,,,0.00,WUHU21636XXSP,2013-10-13 00:17:00,
2013-10-12 20:22:00,68.4,53.4,29.99,SE,135,0.0,0.0,59,0.00,,,0.00,WUHU21636XXSP,2013-10-13 00:22:00,
2013-10-12 20:27:00,68.0,54.3,29.99,SE,135,0.0,0.0,62,0.00,,,0.00,WUHU21636XXSP,2013-10-13 00:27:00,
2013-10-12 20:32:00,67.6,54.0,30.00,SE,135,0.0,0.0,62,0.00,,,0.00,WUHU21636XXSP,2013-10-13 00:32:00,
2013-10-12 20:37:00,67.3,55.0,30.00,SE,135,0.0,0.0,65,0.00,,,0.00,WUHU21636XXSP,2013-10-13 00:37:00,
2013-10-12 20:43:00,66.7,55.8,30.00,West,270,1.1,1.1,68,0.00,,,0.00,WUHU21636XXSP,2013-10-13 00:43:00,
2013-10-12 20:48:00,66.6,56.5,30.00,WSW,247,3.5,3.5,70,0.00,,,0.00,WUHU21636XXSP,2013-10-13 00:48:00,
2013-10-12 20:52:00,66.0,57.4,30.00,West,270,0.0,3.5,74,0.00,,,0.00,WUHU21636XXSP,2013-10-13 00:52:00,
2013-10-12 20:57:00,65.3,57.7,30.00,NW,315,2.9,7.1,77,0.00,,,0.00,WUHU21636XXSP,2013-10-13 00:57:00,
2013-10-12 21:02:00,64.9,57.7,30.00,West,270,2.6,7.1,79,0.00,,,0.00,WUHU21636XXSP,2013-10-13 01:02:00,
2013-10-12 21:08:00,64.6,57.7,30.00,SW,225,0.0,2.9,79,0.00,,,0.00,WUHU21636XXSP,2013-10-13 01:08:00,
2013-10-12 21:13:00,64.2,57.9,30.00,WSW,247,2.9,2.9,80,0.00,,,0.00,WUHU21636XXSP,2013-10-13 01:13:00,
2013-10-12 21:18:00,64.0,57.9,29.99,SSW,202,0.0,3.1,82,0.02,,,0.02,WUHU21636XXSP,2013-10-13 01:18:00,
2013-10-12 21:23:00,63.7,57.9,29.99,SSW,202,0.0,3.1,82,0.02,,,0.02,WUHU21636XXSP,2013-10-13 01:23:00,
2013-10-12 21:28:00,63.5,57.7,30.00,SSW,202,0.0,2.6,82,0.02,,,0.02,WUHU21636XXSP,2013-10-13 01:28:00,
2013-10-12 21:33:00,63.1,58.1,30.00,West,270,0.0,1.3,84,0.02,,,0.02,WUHU21636XXSP,2013-10-13 01:33:00,
2013-10-12 21:38:00,62.8,58.1,30.01,West,270,0.0,1.3,85,0.02,,,0.02,WUHU21636XXSP,2013-10-13 01:38:00,
2013-10-12 21:43:00,62.8,58.1,30.00,West,270,0.0,0.0,85,0.02,,,0.02,WUHU21636XXSP,2013-10-13 01:43:00,
2013-10-12 21:48:00,62.6,58.3,30.00,SW,225,2.9,2.9,86,0.02,,,0.02,WUHU21636XXSP,2013-10-13 01:48:00,
2013-10-12 21:53:00,62.4,58.1,30.00,SSW,202,0.0,2.9,87,0.02,,,0.02,WUHU21636XXSP,2013-10-13 01:53:00,
2013-10-12 21:57:00,62.4,58.1,30.01,WNW,292,0.0,3.5,87,0.02,,,0.02,WUHU21636XXSP,2013-10-13 01:57:00,
2013-10-12 22:02:00,62.2,58.3,30.01,SW,225,3.3,3.5,88,0.02,,,0.02,WUHU21636XXSP,2013-10-13 02:02:00,
2013-10-12 22:07:00,62.2,58.3,30.01,SW,225,1.7,3.3,88,0.02,,,0.02,WUHU21636XXSP,2013-10-13 02:07:00,
2013-10-12 22:12:00,62.1,58.5,30.01,SSE,157,0.6,1.7,88,0.02,,,0.02,WUHU21636XXSP,2013-10-13 02:12:00,
2013-10-12 22:17:00,61.9,58.3,30.01,South,180,2.2,3.5,88,0.00,,,0.02,WUHU21636XXSP,2013-10-13 02:17:00,
2013-10-12 22:22:00,61.9,58.3,30.01,SW,225,0.0,3.5,88,0.00,,,0.02,WUHU21636XXSP,2013-10-13 02:22:00,
2013-10-12 22:27:00,61.9,58.3,30.01,SSE,157,2.4,2.4,88,0.00,,,0.02,WUHU21636XXSP,2013-10-13 02:27:00,
2013-10-12 22:32:00,62.1,58.5,30.01,West,270,0.0,2.9,88,0.00,,,0.02,WUHU21636XXSP,2013-10-13 02:32:00,
2013-10-12 22:37:00,62.1,58.5,30.02,SSW,202,0.4,2.9,88,0.00,,,0.02,WUHU21636XXSP,2013-10-13 02:37:00,
2013-10-12 22:42:00,62.2,58.6,30.02,North,0,1.5,6.4,88,0.00,,,0.02,WUHU21636XXSP,2013-10-13 02:42:00,
2013-10-12 22:47:00,62.1,58.5,30.01,West,270,0.0,6.4,88,0.00,,,0.02,WUHU21636XXSP,2013-10-13 02:47:00,
2013-10-12 22:52:00,62.2,58.6,30.02,West,270,5.5,5.5,88,0.00,,,0.02,WUHU21636XXSP,2013-10-13 02:52:00,
2013-10-12 22:57:00,62.2,58.6,30.02,SW,225,4.2,5.5,88,0.00,,,0.02,WUHU21636XXSP,2013-10-13 02:57:00,
2013-10-12 23:02:00,62.1,58.5,30.02,WSW,247,0.8,4.2,88,0.00,,,0.02,WUHU21636XXSP,2013-10-13 03:02:00,
2013-10-12 23:07:00,62.2,59.0,30.02,SSW,202,3.8,4.2,89,0.00,,,0.02,WUHU21636XXSP,2013-10-13 03:07:00,
2013-10-12 23:12:00,62.1,58.8,30.02,WSW,247,1.1,3.8,89,0.00,,,0.02,WUHU21636XXSP,2013-10-13 03:12:00,
2013-10-12 23:17:00,62.1,58.8,30.03,SW,225,2.9,3.8,89,0.00,,,0.02,WUHU21636XXSP,2013-10-13 03:17:00,
2013-10-12 23:22:00,62.1,58.8,30.03,WNW,292,1.5,2.9,89,0.00,,,0.02,WUHU21636XXSP,2013-10-13 03:22:00,
2013-10-12 23:27:00,61.9,58.3,30.03,West,270,1.5,16.5,88,0.00,,,0.02,WUHU21636XXSP,2013-10-13 03:27:00,
2013-10-12 23:32:00,61.9,58.3,30.03,WNW,292,2.2,16.5,87,0.00,,,0.02,WUHU21636XXSP,2013-10-13 03:32:00,
2013-10-12 23:37:00,61.9,58.3,30.03,West,270,0.8,3.5,86,0.00,,,0.02,WUHU21636XXSP,2013-10-13 03:37:00,
2013-10-12 23:42:00,61.9,58.3,30.03,WSW,247,0.0,3.1,86,0.00,,,0.02,WUHU21636XXSP,2013-10-13 03:42:00,
2013-10-12 23:47:00,61.7,57.4,30.03,West,270,2.6,3.1,86,0.00,,,0.02,WUHU21636XXSP,2013-10-13 03:47:00,
2013-10-12 23:52:00,61.7,57.4,30.03,WNW,292,2.6,3.1,86,0.00,,,0.02,WUHU21636XXSP,2013-10-13 03:52:00,
2013-10-12 23:57:00,61.5,57.2,30.03,WNW,292,1.7,2.6,85,0.00,,,0.02,WUHU21636XXSP,2013-10-13 03:57:00,